Qeqertarsuaq

KL  EN  DA
ASIAQ
Weather Now GREENLAND SURVEY
Updated [WGT/WGST] Temperature [°C] Wind [m/s] Air pressure [hPa] Relative humidity [%] Precipitation [mm]
Present Wind chill Speed Max
18.04 00:00-11,5-19,75,6 ⇓8,31017830,2
17.04 23:00-11,4-19,45,3 ⇓9,11017800,1
17.04 22:00-11,7-20,76,7 ⇓9,61016770,2
17.04 21:00-11,7-20,76,6 ⇓9,91016780,1
17.04 20:00-11,6-20,66,6 ⇓8,81016760,0
17.04 19:00-11,5-20,16,1 ⇓8,81015690,0
17.04 18:00-11,4-19,75,7 ⇓7,41015670,0
17.04 17:00-10,8-19,36,3 ⇓8,51014550,0
17.04 16:00-11,1-19,05,2 ⇓7,11013660,0
17.04 15:00-10,9-17,13,5 ⇓5,61013610,0
17.04 14:00-10,7-16,73,3 ⇓6,01013560,0
17.04 13:00-11,1-18,24,4 ⇓7,51013580,0
17.04 12:00-11,6-19,95,7 ⇓7,41012590,0
17.04 11:00-11,7-20,05,6 ⇓7,41012670,0
17.04 10:00-12,0-20,65,8 ⇓7,91012600,0
17.04 09:00-11,9-19,85,0 ⇓6,51011650,0
17.04 08:00-12,0-19,04,0 ⇓5,91011680,0
17.04 07:00-12,1-18,13,0 ⇓5,41010720,1
17.04 06:00-12,6-19,03,3 ⇓8,01010870,6
17.04 05:00-12,4-18,32,9 ⇓7,31009810,3
17.04 04:00-12,4-19,13,6 ⇓7,31009820,3
17.04 03:00-13,4-18,42,2 ⇓3,81009810,1
17.04 02:00-13,2-16,71,4 ⇓2,41009710,0
17.04 01:00-13,3-16,61,4 ⇓3,01009790,0
17.04 00:00-13,4-17,31,6 ⇓3,81009740,0
Position: (69.24417,-53.52886)

[Back]